createdAt,value
2023-01-13T00:02:08.997Z,99219.88
2023-01-13T00:07:10.814Z,99228.41
2023-01-13T00:12:12.390Z,99223.59
2023-01-13T00:17:13.952Z,99223.53
2023-01-13T00:22:15.544Z,99223.69
2023-01-13T00:27:17.142Z,99227.22
2023-01-13T00:32:18.726Z,99233.81
2023-01-13T00:37:20.339Z,99223.13
2023-01-13T00:42:40.482Z,99244.63
2023-01-13T00:47:42.058Z,99230.63
2023-01-13T00:52:43.621Z,99240.47
2023-01-13T00:57:45.188Z,99242.47
2023-01-13T01:02:46.806Z,99232.84
2023-01-13T01:07:48.479Z,99231.81
2023-01-13T01:12:50.962Z,99222.75
2023-01-13T01:17:52.540Z,99228.59
2023-01-13T01:22:54.110Z,99232.00
2023-01-13T01:27:55.677Z,99245.09
2023-01-13T01:32:57.430Z,99229.16
2023-01-13T01:37:59.021Z,99227.19
2023-01-13T01:43:18.925Z,99225.47
2023-01-13T01:48:20.501Z,99243.41
2023-01-13T01:53:22.365Z,99226.88
2023-01-13T01:58:32.704Z,99228.13
2023-01-13T02:03:36.324Z,99216.94
2023-01-13T02:08:39.203Z,99219.47
2023-01-13T02:13:40.800Z,99215.53
2023-01-13T02:18:49.063Z,99212.16
2023-01-13T02:24:41.613Z,99208.44
2023-01-13T02:30:18.938Z,99220.16
2023-01-13T02:35:28.622Z,99216.38
2023-01-13T02:40:40.915Z,99204.63
2023-01-13T02:45:46.811Z,99203.78
2023-01-13T02:50:51.798Z,99190.19
2023-01-13T02:55:53.796Z,99195.09
2023-01-13T03:00:55.819Z,99184.94
2023-01-13T03:06:18.540Z,99194.81
2023-01-13T03:11:20.128Z,99181.03
2023-01-13T03:16:44.205Z,99172.69
2023-01-13T03:21:50.682Z,99177.88
2023-01-13T03:27:08.225Z,99163.50
2023-01-13T03:32:28.053Z,99152.78
2023-01-13T03:37:32.876Z,99149.81
2023-01-13T03:42:34.886Z,99158.50
2023-01-13T03:47:38.540Z,99137.41
2023-01-13T03:52:43.634Z,99154.41
2023-01-13T03:57:50.824Z,99141.97
2023-01-13T04:02:57.410Z,99149.03
2023-01-13T04:08:12.812Z,99151.72
2023-01-13T04:13:16.260Z,99123.66
2023-01-13T04:18:22.515Z,99117.09
2023-01-13T04:23:24.203Z,99134.25
2023-01-13T04:28:25.771Z,99126.88
2023-01-13T04:33:27.239Z,99118.13
2023-01-13T04:38:28.711Z,99097.75
2023-01-13T04:43:30.194Z,99111.28
2023-01-13T04:48:31.661Z,99106.00
2023-01-13T04:53:33.164Z,99105.44
2023-01-13T04:58:34.656Z,99096.38
2023-01-13T05:03:36.141Z,99073.31
2023-01-13T05:08:37.644Z,99078.13
2023-01-13T05:13:57.725Z,99071.28
2023-01-13T05:18:59.179Z,99067.97
2023-01-13T05:24:19.071Z,99081.38
2023-01-13T05:29:20.543Z,99061.84
2023-01-13T05:34:21.999Z,99078.22
2023-01-13T05:39:23.479Z,99066.28
2023-01-13T05:44:24.981Z,99071.56
2023-01-13T05:49:26.431Z,99060.00
2023-01-13T05:54:27.914Z,99052.78
2023-01-13T05:59:29.659Z,99054.63
2023-01-13T06:04:31.182Z,99052.78
2023-01-13T06:09:32.690Z,99059.72
2023-01-13T06:14:42.936Z,99064.03
2023-01-13T06:19:44.543Z,99046.66
2023-01-13T06:24:46.240Z,99045.09
2023-01-13T06:29:47.723Z,99032.69
2023-01-13T06:34:52.189Z,99044.66
2023-01-13T06:39:58.057Z,99050.91
2023-01-13T06:44:59.561Z,99029.19
2023-01-13T06:50:01.046Z,99020.19
2023-01-13T06:55:03.046Z,99031.50
2023-01-13T07:00:05.065Z,99027.44
2023-01-13T07:05:06.635Z,99040.13
2023-01-13T07:10:09.813Z,99038.31
2023-01-13T07:15:20.312Z,99048.56
2023-01-13T07:20:21.807Z,99057.28
2023-01-13T07:25:23.304Z,99069.06
2023-01-13T07:30:24.761Z,99071.63
2023-01-13T07:35:26.224Z,99078.63
2023-01-13T07:40:27.741Z,99054.38
2023-01-13T07:45:29.234Z,99073.41
2023-01-13T07:50:30.764Z,99049.41
2023-01-13T07:55:32.242Z,99034.88
2023-01-13T08:00:33.712Z,99035.63
2023-01-13T08:05:36.200Z,99041.59
2023-01-13T08:10:37.673Z,99048.44
2023-01-13T08:15:39.149Z,99035.00
2023-01-13T08:20:40.669Z,99041.69
2023-01-13T08:25:42.152Z,99036.25
2023-01-13T08:30:43.782Z,99049.97
2023-01-13T08:35:45.318Z,99045.69
2023-01-13T08:40:46.811Z,99048.69
2023-01-13T08:45:58.509Z,99046.97
2023-01-13T08:51:04.302Z,99047.75
2023-01-13T08:56:13.067Z,99063.94
2023-01-13T09:01:17.551Z,99055.50
2023-01-13T09:06:19.663Z,99040.13
2023-01-13T09:11:51.321Z,99044.16
2023-01-13T09:16:52.799Z,99052.41
2023-01-13T09:21:56.103Z,99035.56
2023-01-13T09:26:57.605Z,99055.81
2023-01-13T09:31:59.120Z,99059.84
2023-01-13T09:37:00.607Z,99078.22
2023-01-13T09:42:34.429Z,99082.84
2023-01-13T09:48:00.384Z,99047.63
2023-01-13T09:53:01.858Z,99053.50
2023-01-13T09:58:10.539Z,99077.16
2023-01-13T10:03:30.967Z,99054.50
2023-01-13T10:08:37.572Z,99052.91
2023-01-13T10:13:39.055Z,99063.88
2023-01-13T10:19:04.090Z,99066.69
2023-01-13T10:24:07.409Z,99041.84
2023-01-13T10:29:24.883Z,99055.25
2023-01-13T10:34:26.765Z,99061.97
2023-01-13T10:39:29.424Z,99061.16
2023-01-13T10:44:30.925Z,99068.16
2023-01-13T10:49:36.038Z,99047.63
2023-01-13T10:54:37.501Z,99039.66
2023-01-13T10:59:38.969Z,99082.97
2023-01-13T11:04:42.514Z,99066.41
2023-01-13T11:09:44.010Z,99085.91
2023-01-13T11:14:45.486Z,99077.84
2023-01-13T11:19:54.024Z,99096.19
2023-01-13T11:24:58.795Z,99077.84
2023-01-13T11:30:21.496Z,99076.81
2023-01-13T11:35:22.985Z,99105.81
2023-01-13T11:40:34.324Z,99102.69
2023-01-13T11:45:38.638Z,99100.88
2023-01-13T11:50:51.118Z,99105.31
2023-01-13T11:56:34.956Z,99121.69
2023-01-13T12:01:57.584Z,99119.44
2023-01-13T12:07:14.169Z,99144.59
2023-01-13T12:12:20.653Z,99122.00
2023-01-13T12:17:37.394Z,99120.22
2023-01-13T12:22:38.854Z,99116.25
2023-01-13T12:27:49.599Z,99135.56
2023-01-13T12:32:51.071Z,99125.72
2023-01-13T12:38:03.885Z,99150.91
2023-01-13T12:43:31.849Z,99146.91
2023-01-13T12:48:54.647Z,99144.06
2023-01-13T12:53:56.424Z,99150.41
2023-01-13T12:59:16.434Z,99143.25
2023-01-13T13:04:19.339Z,99133.22
2023-01-13T13:09:26.533Z,99131.44
2023-01-13T13:14:36.765Z,99136.69
2023-01-13T13:19:38.318Z,99164.50
2023-01-13T13:24:48.932Z,99141.00
2023-01-13T13:29:57.404Z,99149.91
2023-01-13T13:35:33.753Z,99162.28
2023-01-13T13:40:58.592Z,99172.66
2023-01-13T13:46:18.648Z,99183.34
2023-01-13T13:51:29.033Z,99196.53
2023-01-13T13:56:30.755Z,99181.88
2023-01-13T14:01:37.693Z,99202.50
2023-01-13T14:06:51.974Z,99189.47
2023-01-13T14:11:57.955Z,99228.31
2023-01-13T14:16:59.431Z,99236.03
2023-01-13T14:22:02.193Z,99227.25
2023-01-13T14:27:16.667Z,99235.44
2023-01-13T14:32:18.776Z,99250.78
2023-01-13T14:37:23.900Z,99237.09
2023-01-13T14:42:28.169Z,99242.94
2023-01-13T14:47:33.743Z,99272.16
2023-01-13T14:52:36.966Z,99311.16
2023-01-13T14:57:39.646Z,99271.53
2023-01-13T15:02:48.817Z,99287.63
2023-01-13T15:08:05.205Z,99285.59
2023-01-13T15:13:06.823Z,99293.28
2023-01-13T15:18:13.600Z,99301.41
2023-01-13T15:23:15.076Z,99293.47
2023-01-13T15:28:19.988Z,99320.16
2023-01-13T15:33:21.801Z,99341.22
2023-01-13T15:38:23.674Z,99341.63
2023-01-13T15:43:43.546Z,99372.84
2023-01-13T15:48:45.029Z,99360.84
2023-01-13T15:53:46.553Z,99377.09
2023-01-13T15:58:48.018Z,99391.16
2023-01-13T16:03:49.477Z,99400.09
2023-01-13T16:08:50.942Z,99399.47
2023-01-13T16:13:52.415Z,99416.47
2023-01-13T16:18:53.967Z,99409.69
2023-01-13T16:23:55.434Z,99429.59
2023-01-13T16:28:57.463Z,99432.91
2023-01-13T16:34:02.583Z,99433.72
2023-01-13T16:39:04.349Z,99447.84
2023-01-13T16:44:06.254Z,99458.97
2023-01-13T16:49:09.071Z,99468.97
2023-01-13T16:54:11.812Z,99476.19
2023-01-13T16:59:14.282Z,99478.03
2023-01-13T17:04:17.431Z,99497.53
2023-01-13T17:09:19.901Z,99501.03
2023-01-13T17:14:23.350Z,99532.34
2023-01-13T17:19:25.546Z,99512.75
2023-01-13T17:24:29.245Z,99537.88
2023-01-13T17:29:32.750Z,99565.06
2023-01-13T17:34:34.349Z,99547.31
2023-01-13T17:39:35.826Z,99581.56
2023-01-13T17:44:37.290Z,99564.47
2023-01-13T17:49:38.759Z,99563.88
2023-01-13T17:54:42.890Z,99590.06
2023-01-13T17:59:44.396Z,99568.00
2023-01-13T18:04:45.931Z,99581.94
2023-01-13T18:09:47.402Z,99597.28
2023-01-13T18:14:48.888Z,99614.81
2023-01-13T18:20:08.942Z,99609.91
2023-01-13T18:25:32.107Z,99642.88
2023-01-13T18:30:33.689Z,99652.13
2023-01-13T18:35:38.296Z,99654.25
2023-01-13T18:40:39.792Z,99670.00
2023-01-13T18:45:41.262Z,99667.19
2023-01-13T18:50:42.731Z,99666.44
2023-01-13T18:55:44.229Z,99672.50
2023-01-13T19:00:46.735Z,99695.97
2023-01-13T19:05:48.225Z,99732.09
2023-01-13T19:10:49.797Z,99735.72
2023-01-13T19:15:51.264Z,99739.03
2023-01-13T19:20:52.855Z,99789.00
2023-01-13T19:25:54.327Z,99802.41
2023-01-13T19:31:02.518Z,99805.63
2023-01-13T19:36:05.057Z,99817.75
2023-01-13T19:41:11.621Z,99837.44
2023-01-13T19:46:13.270Z,99862.13
2023-01-13T19:51:14.763Z,99863.22
2023-01-13T19:56:16.292Z,99864.94
2023-01-13T20:01:17.862Z,99877.31
2023-01-13T20:06:19.367Z,99903.00
2023-01-13T20:11:25.026Z,99923.38
2023-01-13T20:16:29.033Z,99923.22
2023-01-13T20:21:30.506Z,99932.69
2023-01-13T20:26:32.043Z,99957.63
2023-01-13T20:31:33.527Z,99967.00
2023-01-13T20:36:37.207Z,99962.75
2023-01-13T20:41:57.296Z,99996.50
2023-01-13T20:46:59.104Z,99985.66
2023-01-13T20:52:00.572Z,99997.81
2023-01-13T20:57:02.193Z,100016.63
2023-01-13T21:02:04.251Z,100025.72
2023-01-13T21:07:05.855Z,100039.31
2023-01-13T21:12:25.741Z,100039.63
2023-01-13T21:17:45.646Z,100049.53
2023-01-13T21:22:47.528Z,100055.44
2023-01-13T21:27:48.990Z,100080.03
2023-01-13T21:32:50.446Z,100093.19
2023-01-13T21:37:51.901Z,100101.66
2023-01-13T21:43:22.331Z,100103.06
2023-01-13T21:48:23.817Z,100110.91
2023-01-13T21:53:25.274Z,100121.72
2023-01-13T21:58:26.745Z,100130.59
2023-01-13T22:03:28.256Z,100143.03
2023-01-13T22:08:32.611Z,100147.56
2023-01-13T22:13:52.725Z,100157.69
2023-01-13T22:18:54.253Z,100163.31
2023-01-13T22:23:55.709Z,100169.81
2023-01-13T22:28:57.205Z,100173.56
2023-01-13T22:33:58.674Z,100197.94
2023-01-13T22:39:00.657Z,100212.28
2023-01-13T22:44:02.217Z,100225.06
2023-01-13T22:49:03.693Z,100225.94
2023-01-13T22:54:05.172Z,100240.72
2023-01-13T22:59:06.795Z,100235.44
2023-01-13T23:04:10.929Z,100242.16
2023-01-13T23:09:12.448Z,100249.66
2023-01-13T23:14:13.945Z,100242.44
2023-01-13T23:19:15.451Z,100256.59
2023-01-13T23:24:17.048Z,100249.72
2023-01-13T23:29:18.532Z,100259.53
2023-01-13T23:34:19.991Z,100261.28
2023-01-13T23:39:21.494Z,100271.38
2023-01-13T23:44:22.993Z,100272.72
2023-01-13T23:49:24.479Z,100275.56
2023-01-13T23:54:25.950Z,100282.34
2023-01-13T23:59:27.451Z,100280.84
